Карточка аэропорта UMOO

Внимание!
Информация на этой странице в стадии наполнения.
Если вы не увидели какой-то информации, или заметили неточность - пожалуйста сообщите нам!
Спасибо!
Команда RU-STAFF
Название аэропортаMogilev
Название аэропорта (англ.)Mogilev
Превышение637 ft. (194.2 m.)
Координаты53°57.318', 30°5.652'
Высота перехода6000 ft
Эшелон переходаFL80; QNH<977hPa - FL90
Коды ответчика0034
Зона ОрВДМинск РПИ (UMMV)
Данные METARUMOO 081300Z 17005G08MPS 8000 OVC025 00/M02 Q1014 NOSIG
Проноз погоды (TAF)
NOTAMshow/hide NOTAM
AWOS   TABLE

Информация о ВПП

ВПП Длина ВПП (м.) Покрытие Курс ВПП Частота ILS
132566Цементобетон128111.1
312566Цементобетон308 

Диспетчерские позиции


Сценарии

Сценарий
Нет результатов.


Спутниковое изображение